LGAV/ATH METAR and TAF weather

Enter ICAO airport designator
Station Type Date Time Source
LGAV METAR 2021/09/28 15:50 UTC NOAA

LGAV 281550Z 04014KT 9999 FEW030 23/14 Q1016 NOSIG


Station Type Date Time Source
LGAV Decoded METAR 2021/09/28 15:50 UTC NOAA

Athens Eleftherios Venizelos International Airport, Greece (LGAV) 37-56N 023-56E
Sep 28, 2021 - 11:50 AM EDT / 2021.09.28 1550 UTC
Wind: from the NE (040 degrees) at 16 MPH (14 KT):0
Visibility: greater than 7 mile(s):0
Sky conditions: mostly clear
Temperature: 73 F (23 C)
Dew Point: 57 F (14 C)
Relative Humidity: 56%
Pressure (altimeter): 30.00 in. Hg (1016 hPa)
ob: LGAV 281550Z 04014KT 9999 FEW030 23/14 Q1016 NOSIG
cycle: 16

Station Type Date Time Source
LGAV TAF 2021/09/28 12:12 UTC NOAA

TAF TAF LGAV 281100Z 2812/2912 03014KT 9999 FEW020
TEMPO 2904/2912 02016G26KT FEW020 SCT070

Example: see airport list